createdAt,value
2024-01-29T00:01:13.136Z,93.00
2024-01-29T00:03:41.125Z,91.67
2024-01-29T00:06:09.022Z,91.31
2024-01-29T00:08:36.617Z,91.21
2024-01-29T00:11:04.330Z,93.22
2024-01-29T00:13:32.025Z,92.58
2024-01-29T00:16:00.640Z,92.90
2024-01-29T00:18:28.541Z,92.33
2024-01-29T00:20:58.881Z,92.44
2024-01-29T00:23:26.415Z,92.88
2024-01-29T00:25:54.128Z,91.40
2024-01-29T00:28:21.663Z,90.92
2024-01-29T00:30:49.678Z,91.17
2024-01-29T00:33:17.377Z,91.37
2024-01-29T00:35:45.385Z,92.05
2024-01-29T00:38:13.068Z,91.89
2024-01-29T00:40:40.562Z,92.66
2024-01-29T00:43:08.322Z,91.91
2024-01-29T00:45:36.305Z,91.35
2024-01-29T00:48:04.308Z,90.80
2024-01-29T00:50:32.240Z,90.95
2024-01-29T00:52:59.763Z,90.44
2024-01-29T00:55:27.269Z,90.50
2024-01-29T00:57:54.939Z,90.63
2024-01-29T01:00:22.855Z,90.02
2024-01-29T01:02:50.450Z,89.15
2024-01-29T01:05:18.169Z,89.58
2024-01-29T01:07:45.962Z,91.37
2024-01-29T01:10:13.784Z,90.62
2024-01-29T01:12:41.420Z,89.97
2024-01-29T01:15:10.044Z,90.27
2024-01-29T01:17:38.637Z,90.67
2024-01-29T01:20:07.772Z,90.24
2024-01-29T01:22:35.348Z,91.06
2024-01-29T01:25:03.212Z,89.83
2024-01-29T01:27:30.722Z,89.87
2024-01-29T01:29:58.420Z,91.94
2024-01-29T01:32:28.901Z,92.36
2024-01-29T01:34:56.717Z,91.65
2024-01-29T01:37:24.294Z,88.93
2024-01-29T01:39:54.615Z,89.77
2024-01-29T01:42:23.998Z,89.52
2024-01-29T01:44:51.699Z,87.62
2024-01-29T01:47:19.545Z,88.22
2024-01-29T01:49:47.801Z,89.74
2024-01-29T01:52:18.942Z,89.66
2024-01-29T01:54:47.573Z,89.50
2024-01-29T01:57:16.889Z,89.15
2024-01-29T01:59:45.649Z,90.34
2024-01-29T02:02:14.592Z,89.67
2024-01-29T02:04:42.326Z,88.77
2024-01-29T02:07:10.327Z,87.83
2024-01-29T02:09:38.216Z,88.05
2024-01-29T02:12:06.193Z,87.97
2024-01-29T02:14:34.184Z,88.66
2024-01-29T02:17:02.128Z,89.07
2024-01-29T02:19:49.810Z,89.60
2024-01-29T02:22:17.283Z,89.55
2024-01-29T02:24:44.817Z,89.14
2024-01-29T02:27:12.497Z,88.67
2024-01-29T02:29:40.290Z,88.84
2024-01-29T02:32:07.830Z,88.73
2024-01-29T02:34:35.651Z,89.52
2024-01-29T02:37:03.352Z,89.20
2024-01-29T02:39:31.157Z,89.33
2024-01-29T02:41:59.118Z,89.76
2024-01-29T02:44:26.729Z,90.66
2024-01-29T02:46:56.214Z,90.13
2024-01-29T02:49:23.807Z,89.19
2024-01-29T02:51:51.404Z,89.27
2024-01-29T02:54:19.168Z,90.37
2024-01-29T02:56:46.594Z,89.38
2024-01-29T02:59:14.233Z,89.58
2024-01-29T03:01:41.736Z,88.13
2024-01-29T03:04:09.507Z,88.22
2024-01-29T03:06:37.149Z,88.49
2024-01-29T03:09:05.312Z,89.04
2024-01-29T03:11:32.920Z,88.63
2024-01-29T03:14:02.285Z,88.91
2024-01-29T03:16:30.012Z,89.11
2024-01-29T03:18:57.726Z,89.45
2024-01-29T03:21:27.702Z,89.52
2024-01-29T03:23:58.312Z,89.62
2024-01-29T03:26:26.177Z,89.31
2024-01-29T03:28:54.001Z,89.03
2024-01-29T03:31:21.935Z,88.53
2024-01-29T03:33:50.344Z,88.82
2024-01-29T03:36:18.117Z,88.67
2024-01-29T03:38:45.687Z,89.15
2024-01-29T03:41:13.447Z,89.73
2024-01-29T03:43:41.196Z,89.89
2024-01-29T03:46:08.630Z,90.24
2024-01-29T03:48:37.136Z,90.03
2024-01-29T03:51:04.942Z,90.45
2024-01-29T03:53:32.530Z,89.48
2024-01-29T03:55:59.963Z,89.53
2024-01-29T03:58:28.012Z,89.80
2024-01-29T04:00:56.034Z,90.22
2024-01-29T04:03:23.681Z,90.01
2024-01-29T04:05:51.388Z,90.32
2024-01-29T04:08:19.351Z,89.43
2024-01-29T04:10:46.930Z,89.30
2024-01-29T04:13:14.442Z,86.28
2024-01-29T04:15:42.326Z,88.34
2024-01-29T04:18:10.154Z,88.77
2024-01-29T04:20:37.839Z,88.30
2024-01-29T04:23:05.537Z,88.50
2024-01-29T04:25:32.920Z,89.15
2024-01-29T04:28:00.488Z,88.96
2024-01-29T04:30:28.396Z,89.38
2024-01-29T04:32:56.192Z,88.45
2024-01-29T04:35:24.077Z,88.31
2024-01-29T04:37:51.662Z,88.39
2024-01-29T04:40:19.391Z,87.68
2024-01-29T04:42:47.407Z,88.56
2024-01-29T04:45:15.165Z,89.30
2024-01-29T04:47:42.902Z,88.98
2024-01-29T04:50:10.771Z,89.49
2024-01-29T04:52:38.255Z,89.38
2024-01-29T04:55:06.379Z,89.48
2024-01-29T04:57:35.078Z,89.91
2024-01-29T05:00:04.906Z,89.58
2024-01-29T05:02:33.047Z,89.72
2024-01-29T05:05:00.480Z,89.12
2024-01-29T05:07:28.282Z,88.80
2024-01-29T05:09:55.959Z,89.26
2024-01-29T05:12:25.080Z,89.56
2024-01-29T05:14:52.800Z,89.51
2024-01-29T05:17:20.355Z,89.73
2024-01-29T05:19:48.747Z,89.96
2024-01-29T05:22:16.563Z,89.80
2024-01-29T05:24:44.347Z,89.29
2024-01-29T05:27:12.096Z,89.28
2024-01-29T05:29:39.705Z,89.61
2024-01-29T05:32:07.818Z,89.71
2024-01-29T05:34:35.520Z,89.82
2024-01-29T05:37:03.212Z,89.59
2024-01-29T05:39:30.827Z,90.02
2024-01-29T05:41:58.579Z,89.36
2024-01-29T05:44:26.163Z,89.45
2024-01-29T05:46:53.739Z,89.34
2024-01-29T05:49:22.746Z,89.33
2024-01-29T05:51:52.930Z,89.13
2024-01-29T05:54:20.575Z,87.91
2024-01-29T05:56:51.215Z,89.05
2024-01-29T05:59:19.776Z,88.80
2024-01-29T06:01:47.901Z,88.63
2024-01-29T06:04:15.758Z,88.67
2024-01-29T06:06:44.716Z,88.03
2024-01-29T06:09:12.703Z,88.67
2024-01-29T06:11:40.444Z,88.19
2024-01-29T06:14:08.360Z,88.65
2024-01-29T06:16:35.974Z,89.10
2024-01-29T06:19:03.673Z,88.53
2024-01-29T06:21:32.258Z,87.78
2024-01-29T06:23:59.856Z,86.99
2024-01-29T06:26:27.691Z,87.42
2024-01-29T06:28:56.534Z,87.73
2024-01-29T06:31:25.402Z,87.65
2024-01-29T06:33:57.547Z,88.07
2024-01-29T06:36:26.769Z,88.59
2024-01-29T06:38:54.484Z,88.71
2024-01-29T06:41:23.348Z,89.19
2024-01-29T06:43:51.267Z,89.06
2024-01-29T06:46:19.075Z,87.99
2024-01-29T06:48:46.686Z,88.82
2024-01-29T06:51:16.471Z,87.69
2024-01-29T06:53:44.434Z,88.36
2024-01-29T06:56:11.864Z,88.24
2024-01-29T06:58:39.504Z,88.24
2024-01-29T07:01:08.541Z,88.59
2024-01-29T07:03:36.557Z,88.45
2024-01-29T07:06:05.411Z,88.76
2024-01-29T07:08:33.065Z,89.10
2024-01-29T07:11:02.438Z,88.86
2024-01-29T07:13:31.722Z,88.97
2024-01-29T07:16:00.998Z,89.13
2024-01-29T07:18:28.696Z,89.20
2024-01-29T07:20:56.557Z,88.93
2024-01-29T07:23:24.653Z,88.78
2024-01-29T07:25:52.312Z,89.09
2024-01-29T07:28:20.038Z,87.98
2024-01-29T07:30:47.639Z,87.67
2024-01-29T07:33:15.344Z,88.38
2024-01-29T07:35:43.658Z,89.08
2024-01-29T07:38:11.510Z,89.67
2024-01-29T07:40:39.016Z,90.25
2024-01-29T07:43:06.636Z,90.18
2024-01-29T07:45:34.939Z,89.26
2024-01-29T07:48:06.078Z,89.55
2024-01-29T07:50:34.192Z,89.32
2024-01-29T07:53:03.832Z,89.58
2024-01-29T07:55:31.592Z,89.24
2024-01-29T07:57:59.200Z,89.97
2024-01-29T08:00:27.300Z,89.13
2024-01-29T08:02:55.349Z,90.50
2024-01-29T08:05:23.103Z,88.76
2024-01-29T08:07:51.017Z,89.06
2024-01-29T08:10:18.562Z,87.84
2024-01-29T08:12:47.787Z,88.14
2024-01-29T08:15:17.233Z,88.87
2024-01-29T08:17:45.055Z,87.77
2024-01-29T08:20:12.974Z,88.51
2024-01-29T08:22:40.768Z,87.84
2024-01-29T08:25:08.686Z,87.76
2024-01-29T08:27:36.884Z,87.67
2024-01-29T08:30:05.174Z,87.88
2024-01-29T08:32:33.445Z,88.80
2024-01-29T08:35:01.365Z,88.33
2024-01-29T08:37:29.345Z,86.20
2024-01-29T08:39:56.977Z,85.47
2024-01-29T08:42:24.849Z,87.25
2024-01-29T08:44:57.454Z,87.72
2024-01-29T08:47:25.831Z,87.87
2024-01-29T08:49:53.784Z,88.25
2024-01-29T08:52:21.376Z,88.42
2024-01-29T08:54:50.169Z,89.01
2024-01-29T08:57:18.690Z,89.23
2024-01-29T08:59:46.253Z,89.70
2024-01-29T09:02:14.383Z,89.72
2024-01-29T09:04:42.941Z,89.66
2024-01-29T09:07:11.202Z,89.09
2024-01-29T09:09:38.737Z,88.74
2024-01-29T09:12:06.589Z,89.01
2024-01-29T09:14:34.302Z,89.18
2024-01-29T09:17:01.985Z,89.89
2024-01-29T09:19:29.590Z,90.26
2024-01-29T09:21:57.376Z,89.42
2024-01-29T09:24:24.856Z,89.92
2024-01-29T09:26:52.773Z,89.23
2024-01-29T09:29:20.332Z,89.45
2024-01-29T09:31:47.761Z,89.85
2024-01-29T09:34:15.601Z,88.49
2024-01-29T09:36:43.414Z,88.64
2024-01-29T09:39:11.215Z,89.62
2024-01-29T09:41:40.189Z,88.33
2024-01-29T09:44:09.117Z,89.01
2024-01-29T09:46:41.582Z,88.88
2024-01-29T09:49:10.100Z,89.67
2024-01-29T09:51:37.826Z,89.37
2024-01-29T09:54:06.610Z,89.77
2024-01-29T09:56:34.195Z,88.51
2024-01-29T09:59:02.026Z,88.79
2024-01-29T10:01:30.681Z,89.29
2024-01-29T10:03:59.036Z,89.61
2024-01-29T10:06:28.932Z,90.00
2024-01-29T10:08:58.694Z,90.19
2024-01-29T10:11:27.441Z,89.84
2024-01-29T10:14:01.034Z,89.42
2024-01-29T10:16:28.752Z,89.65
2024-01-29T10:18:58.299Z,89.97
2024-01-29T10:21:26.227Z,90.20
2024-01-29T10:24:00.601Z,90.24
2024-01-29T10:26:28.389Z,90.07
2024-01-29T10:29:03.964Z,88.23
2024-01-29T10:31:32.689Z,87.77
2024-01-29T10:34:01.351Z,87.39
2024-01-29T10:36:32.056Z,87.81
2024-01-29T10:39:04.980Z,88.48
2024-01-29T10:41:34.043Z,88.78
2024-01-29T10:44:05.387Z,88.97
2024-01-29T10:46:39.265Z,89.20
2024-01-29T10:49:09.915Z,87.80
2024-01-29T10:51:38.302Z,88.16
2024-01-29T10:54:06.879Z,88.22
2024-01-29T10:56:34.290Z,88.92
2024-01-29T10:59:03.732Z,89.44
2024-01-29T11:01:33.233Z,88.95
2024-01-29T11:04:02.428Z,86.94
2024-01-29T11:06:51.058Z,88.33
2024-01-29T11:09:24.039Z,87.22
2024-01-29T11:11:54.973Z,88.29
2024-01-29T11:14:26.791Z,88.53
2024-01-29T11:16:55.189Z,88.33
2024-01-29T11:19:25.145Z,88.90
2024-01-29T11:21:52.951Z,89.43
2024-01-29T11:24:23.635Z,90.32
2024-01-29T11:26:53.780Z,90.83
2024-01-29T11:29:24.134Z,91.48
2024-01-29T11:31:55.232Z,91.93
2024-01-29T11:34:30.248Z,92.33
2024-01-29T11:36:58.988Z,91.67
2024-01-29T11:39:29.272Z,91.41
2024-01-29T11:41:57.980Z,92.00
2024-01-29T11:44:27.282Z,92.13
2024-01-29T11:46:56.704Z,91.75
2024-01-29T11:49:29.135Z,91.95
2024-01-29T11:51:57.529Z,92.78
2024-01-29T11:54:26.015Z,91.41
2024-01-29T11:56:53.743Z,91.47
2024-01-29T11:59:21.346Z,92.08
2024-01-29T12:01:51.499Z,91.28
2024-01-29T12:04:20.046Z,92.02
2024-01-29T12:06:52.737Z,92.16
2024-01-29T12:09:20.704Z,92.05
2024-01-29T12:11:48.383Z,92.72
2024-01-29T12:14:16.713Z,92.30
2024-01-29T12:16:44.502Z,91.38
2024-01-29T12:19:24.606Z,91.50
2024-01-29T12:21:52.678Z,91.80
2024-01-29T12:24:21.782Z,91.32
2024-01-29T12:27:07.821Z,91.97
2024-01-29T12:29:49.941Z,92.53
2024-01-29T12:32:21.902Z,93.05
2024-01-29T12:34:49.665Z,93.93
2024-01-29T12:37:26.145Z,93.64
2024-01-29T12:39:57.716Z,94.16
2024-01-29T12:42:30.147Z,94.23
2024-01-29T12:45:08.894Z,94.66
2024-01-29T12:47:38.721Z,94.40
2024-01-29T12:50:06.819Z,93.47
2024-01-29T12:52:34.582Z,93.74
2024-01-29T12:55:02.126Z,92.22
2024-01-29T12:57:31.403Z,92.81
2024-01-29T12:59:58.949Z,92.52
2024-01-29T13:02:26.807Z,92.39
2024-01-29T13:04:54.854Z,92.64
2024-01-29T13:07:22.491Z,93.09
2024-01-29T13:09:53.495Z,92.96
2024-01-29T13:12:21.808Z,93.13
2024-01-29T13:14:49.800Z,93.14
2024-01-29T13:17:17.694Z,93.02
2024-01-29T13:19:45.435Z,94.55
2024-01-29T13:22:13.240Z,94.58
2024-01-29T13:24:41.051Z,93.93
2024-01-29T13:27:08.823Z,93.75
2024-01-29T13:29:37.710Z,93.86
2024-01-29T13:32:05.488Z,94.61
2024-01-29T13:34:33.250Z,94.79
2024-01-29T13:37:01.040Z,94.90
2024-01-29T13:39:28.722Z,95.63
2024-01-29T13:41:56.410Z,94.85
2024-01-29T13:44:24.097Z,94.85
2024-01-29T13:46:52.415Z,94.40
2024-01-29T13:49:20.220Z,95.17
2024-01-29T13:51:48.146Z,95.02
2024-01-29T13:54:15.752Z,94.16
2024-01-29T13:56:43.620Z,95.03
2024-01-29T13:59:11.415Z,94.64
2024-01-29T14:01:43.997Z,94.77
2024-01-29T14:04:43.664Z,95.48
2024-01-29T14:07:12.469Z,95.14
2024-01-29T14:09:40.266Z,94.74
2024-01-29T14:12:08.406Z,94.97
2024-01-29T14:14:41.239Z,94.90
2024-01-29T14:17:14.377Z,95.35
2024-01-29T14:19:42.156Z,95.56
2024-01-29T14:22:09.914Z,95.88
2024-01-29T14:24:38.668Z,96.43
2024-01-29T14:27:06.485Z,96.06
2024-01-29T14:29:34.163Z,95.95
2024-01-29T14:32:02.200Z,96.05
2024-01-29T14:34:29.874Z,96.19
2024-01-29T14:36:57.750Z,96.33
2024-01-29T14:39:25.716Z,95.45
2024-01-29T14:41:53.304Z,94.85
2024-01-29T14:44:20.922Z,94.51
2024-01-29T14:46:48.924Z,95.33
2024-01-29T14:49:17.718Z,96.02
2024-01-29T14:51:47.254Z,96.07
2024-01-29T14:54:14.840Z,95.47
2024-01-29T14:56:42.524Z,96.23
2024-01-29T14:59:10.165Z,95.73
2024-01-29T15:01:41.504Z,95.44
2024-01-29T15:04:13.220Z,96.43
2024-01-29T15:06:41.912Z,95.54
2024-01-29T15:09:10.058Z,95.51
2024-01-29T15:11:38.272Z,95.66
2024-01-29T15:14:05.926Z,95.43
2024-01-29T15:16:33.797Z,95.13
2024-01-29T15:19:01.881Z,93.92
2024-01-29T15:21:29.589Z,95.79
2024-01-29T15:23:59.138Z,92.30
2024-01-29T15:26:29.975Z,93.72
2024-01-29T15:28:57.727Z,94.81
2024-01-29T15:31:29.419Z,94.91
2024-01-29T15:33:57.717Z,95.20
2024-01-29T15:36:25.290Z,94.59
2024-01-29T15:38:53.003Z,94.60
2024-01-29T15:41:20.799Z,95.16
2024-01-29T15:43:48.549Z,94.75
2024-01-29T15:46:17.302Z,94.84
2024-01-29T15:48:44.919Z,94.59
2024-01-29T15:51:14.639Z,94.77
2024-01-29T15:53:43.102Z,95.26
2024-01-29T15:56:10.889Z,93.82
2024-01-29T15:58:38.707Z,93.95
2024-01-29T16:01:32.305Z,94.38
2024-01-29T16:04:00.068Z,94.62
2024-01-29T16:06:27.670Z,95.08
2024-01-29T16:08:55.601Z,95.33
2024-01-29T16:11:23.135Z,93.85
2024-01-29T16:13:50.709Z,94.31
2024-01-29T16:16:18.345Z,94.79
2024-01-29T16:18:46.260Z,94.44
2024-01-29T16:21:23.132Z,94.34
2024-01-29T16:23:52.824Z,94.28
2024-01-29T16:26:21.140Z,94.69
2024-01-29T16:28:49.059Z,94.59
2024-01-29T16:31:16.989Z,94.33
2024-01-29T16:33:44.873Z,94.09
2024-01-29T16:36:24.886Z,94.77
2024-01-29T16:38:54.165Z,94.72
2024-01-29T16:41:26.311Z,96.34
2024-01-29T16:43:55.364Z,94.66
2024-01-29T16:46:24.396Z,96.42
2024-01-29T16:48:52.346Z,94.41
2024-01-29T16:51:23.789Z,94.53
2024-01-29T16:53:52.653Z,94.84
2024-01-29T16:56:30.600Z,95.83
2024-01-29T16:59:00.629Z,94.23
2024-01-29T17:01:29.429Z,94.16
2024-01-29T17:03:57.842Z,93.85
2024-01-29T17:06:30.938Z,93.96
2024-01-29T17:08:59.112Z,94.60
2024-01-29T17:11:27.268Z,93.98
2024-01-29T17:13:54.997Z,94.39
2024-01-29T17:16:22.969Z,94.63
2024-01-29T17:18:51.369Z,94.76
2024-01-29T17:21:19.096Z,94.42
2024-01-29T17:23:46.854Z,95.37
2024-01-29T17:26:15.299Z,94.98
2024-01-29T17:28:46.421Z,94.72
2024-01-29T17:31:14.600Z,95.02
2024-01-29T17:33:42.427Z,95.11
2024-01-29T17:36:10.717Z,94.60
2024-01-29T17:38:39.469Z,94.84
2024-01-29T17:41:07.034Z,94.71
2024-01-29T17:43:34.599Z,95.23
2024-01-29T17:46:02.285Z,96.09
2024-01-29T17:48:30.154Z,94.95
2024-01-29T17:50:59.009Z,95.06
2024-01-29T17:53:29.792Z,94.35
2024-01-29T17:55:57.879Z,94.64
2024-01-29T17:58:26.180Z,95.60
2024-01-29T18:00:54.028Z,95.14
2024-01-29T18:03:24.152Z,94.77
2024-01-29T18:05:51.848Z,95.31
2024-01-29T18:08:20.976Z,95.61
2024-01-29T18:10:48.517Z,94.22
2024-01-29T18:13:17.123Z,94.36
2024-01-29T18:15:44.823Z,94.52
2024-01-29T18:18:13.798Z,94.76
2024-01-29T18:20:41.390Z,94.23
2024-01-29T18:23:09.998Z,94.47
2024-01-29T18:25:40.519Z,95.53
2024-01-29T18:28:08.204Z,95.08
2024-01-29T18:30:43.879Z,94.24
2024-01-29T18:33:12.225Z,94.26
2024-01-29T18:35:39.934Z,94.04
2024-01-29T18:38:07.525Z,94.79
2024-01-29T18:40:37.740Z,93.37
2024-01-29T18:43:05.746Z,92.96
2024-01-29T18:45:33.401Z,93.27
2024-01-29T18:48:02.912Z,93.32
2024-01-29T18:50:30.625Z,93.04
2024-01-29T18:52:58.377Z,93.00
2024-01-29T18:55:26.603Z,93.00
2024-01-29T18:57:55.329Z,92.63
2024-01-29T19:00:23.208Z,92.77
2024-01-29T19:02:50.791Z,93.65
2024-01-29T19:05:18.539Z,93.64
2024-01-29T19:07:49.399Z,94.28
2024-01-29T19:10:17.610Z,93.91
2024-01-29T19:12:46.308Z,94.13
2024-01-29T19:15:13.986Z,93.62
2024-01-29T19:17:41.934Z,93.31
2024-01-29T19:20:10.567Z,94.09
2024-01-29T19:22:37.997Z,94.02
2024-01-29T19:25:07.036Z,93.50
2024-01-29T19:27:34.683Z,92.68
2024-01-29T19:30:02.318Z,92.45
2024-01-29T19:32:35.916Z,92.72
2024-01-29T19:35:03.881Z,92.09
2024-01-29T19:37:35.926Z,92.43
2024-01-29T19:40:04.218Z,91.85
2024-01-29T19:42:31.780Z,91.88
2024-01-29T19:44:59.421Z,91.37
2024-01-29T19:47:26.968Z,91.74
2024-01-29T19:49:58.996Z,91.96
2024-01-29T19:52:29.531Z,92.22
2024-01-29T19:54:57.589Z,91.85
2024-01-29T19:57:29.027Z,91.69
2024-01-29T19:59:56.570Z,92.34
2024-01-29T20:02:24.085Z,93.94
2024-01-29T20:04:56.154Z,91.86
2024-01-29T20:07:23.752Z,91.84
2024-01-29T20:09:51.300Z,92.02
2024-01-29T20:12:22.275Z,93.37
2024-01-29T20:14:50.023Z,92.03
2024-01-29T20:17:17.912Z,91.33
2024-01-29T20:19:46.812Z,91.13
2024-01-29T20:22:14.494Z,92.52
2024-01-29T20:24:42.276Z,91.95
2024-01-29T20:27:09.778Z,92.23
2024-01-29T20:29:37.275Z,93.00
2024-01-29T20:32:05.687Z,92.27
2024-01-29T20:34:35.833Z,92.88
2024-01-29T20:37:03.947Z,92.21
2024-01-29T20:39:32.544Z,91.57
2024-01-29T20:42:01.537Z,92.73
2024-01-29T20:44:30.442Z,91.94
2024-01-29T20:46:58.202Z,92.19
2024-01-29T20:49:26.296Z,92.91
2024-01-29T20:51:54.224Z,92.15
2024-01-29T20:54:21.741Z,91.76
2024-01-29T20:56:49.212Z,92.37
2024-01-29T20:59:16.721Z,92.67
2024-01-29T21:01:47.535Z,92.32
2024-01-29T21:04:15.936Z,92.92
2024-01-29T21:06:43.489Z,93.12
2024-01-29T21:09:11.267Z,93.02
2024-01-29T21:11:38.890Z,93.17
2024-01-29T21:14:06.633Z,92.10
2024-01-29T21:16:34.584Z,92.53
2024-01-29T21:19:02.330Z,92.98
2024-01-29T21:21:31.202Z,93.21
2024-01-29T21:24:00.277Z,93.09
2024-01-29T21:26:28.469Z,93.54
2024-01-29T21:28:56.403Z,93.00
2024-01-29T21:31:24.337Z,92.97
2024-01-29T21:33:52.071Z,93.43
2024-01-29T21:36:20.863Z,93.33
2024-01-29T21:38:48.528Z,93.18
2024-01-29T21:41:17.154Z,93.63
2024-01-29T21:43:44.729Z,93.97
2024-01-29T21:46:12.728Z,92.72
2024-01-29T21:48:40.443Z,92.50
2024-01-29T21:51:08.355Z,93.18
2024-01-29T21:53:36.143Z,93.63
2024-01-29T21:56:04.298Z,93.28
2024-01-29T21:58:31.997Z,93.68
2024-01-29T22:00:59.705Z,93.09
2024-01-29T22:03:27.488Z,92.45
2024-01-29T22:05:55.332Z,93.55
2024-01-29T22:08:23.447Z,93.45
2024-01-29T22:10:50.991Z,93.28
2024-01-29T22:13:18.993Z,93.48
2024-01-29T22:15:46.813Z,93.51
2024-01-29T22:18:14.443Z,93.53
2024-01-29T22:20:42.416Z,93.09
2024-01-29T22:23:09.833Z,92.75
2024-01-29T22:25:37.416Z,92.81
2024-01-29T22:28:05.734Z,93.19
2024-01-29T22:30:33.465Z,93.40
2024-01-29T22:33:01.143Z,93.71
2024-01-29T22:35:29.354Z,93.91
2024-01-29T22:37:57.265Z,94.15
2024-01-29T22:40:25.960Z,94.32
2024-01-29T22:42:53.694Z,94.58
2024-01-29T22:45:21.619Z,94.32
2024-01-29T22:47:51.272Z,94.05
2024-01-29T22:50:19.608Z,93.88
2024-01-29T22:52:47.066Z,94.15
2024-01-29T22:55:14.911Z,94.22
2024-01-29T22:57:42.452Z,94.56
2024-01-29T23:00:18.520Z,95.07
2024-01-29T23:02:47.333Z,95.45
2024-01-29T23:05:14.900Z,93.92
2024-01-29T23:07:43.599Z,94.47
2024-01-29T23:10:11.487Z,94.41
2024-01-29T23:12:39.367Z,93.35
2024-01-29T23:15:09.076Z,94.12
2024-01-29T23:17:36.707Z,94.02
2024-01-29T23:20:07.383Z,94.50
2024-01-29T23:22:34.939Z,94.42
2024-01-29T23:25:02.862Z,95.09
2024-01-29T23:27:33.613Z,94.56
2024-01-29T23:30:03.036Z,95.02
2024-01-29T23:32:31.771Z,95.15
2024-01-29T23:34:59.964Z,94.35
2024-01-29T23:37:30.756Z,93.98
2024-01-29T23:39:58.542Z,94.00
2024-01-29T23:42:27.713Z,93.79
2024-01-29T23:44:55.978Z,95.43
2024-01-29T23:47:23.642Z,93.82
2024-01-29T23:49:51.369Z,94.30
2024-01-29T23:52:29.587Z,94.00
2024-01-29T23:54:57.428Z,94.41
2024-01-29T23:57:25.632Z,94.29
2024-01-29T23:59:53.391Z,94.34
